createdAt,value
2017-06-11T00:00:26.491Z,18.41
2017-06-11T00:01:27.065Z,18.34
2017-06-11T00:02:27.646Z,18.23
2017-06-11T00:03:28.226Z,18.23
2017-06-11T00:04:28.805Z,18.38
2017-06-11T00:05:29.383Z,18.37
2017-06-11T00:06:29.962Z,18.43
2017-06-11T00:07:30.544Z,18.33
2017-06-11T00:08:31.130Z,18.40
2017-06-11T00:09:31.709Z,18.40
2017-06-11T00:10:32.288Z,18.34
2017-06-11T00:11:32.868Z,18.33
2017-06-11T00:12:33.461Z,18.20
2017-06-11T00:13:34.039Z,18.20
2017-06-11T00:14:34.620Z,18.13
2017-06-11T00:15:35.213Z,18.10
2017-06-11T00:16:35.791Z,18.15
2017-06-11T00:17:36.371Z,18.07
2017-06-11T00:18:36.948Z,18.13
2017-06-11T00:19:37.528Z,18.18
2017-06-11T00:20:38.107Z,18.19
2017-06-11T00:21:38.698Z,18.15
2017-06-11T00:22:39.279Z,18.22
2017-06-11T00:23:39.858Z,18.07
2017-06-11T00:24:40.434Z,18.03
2017-06-11T00:25:41.011Z,18.11
2017-06-11T00:26:41.589Z,18.23
2017-06-11T00:27:42.168Z,18.08
2017-06-11T00:28:42.746Z,18.01
2017-06-11T00:29:43.337Z,17.95
2017-06-11T00:30:43.928Z,17.89
2017-06-11T00:31:44.507Z,17.89
2017-06-11T00:32:45.086Z,17.94
2017-06-11T00:33:45.665Z,17.95
2017-06-11T00:34:46.245Z,17.92
2017-06-11T00:35:46.822Z,17.94
2017-06-11T00:36:47.400Z,17.98
2017-06-11T00:37:47.977Z,17.87
2017-06-11T00:38:48.555Z,17.87
2017-06-11T00:39:49.135Z,17.94
2017-06-11T00:40:49.725Z,17.95
2017-06-11T00:41:50.304Z,18.03
2017-06-11T00:42:50.883Z,17.94
2017-06-11T00:43:51.474Z,17.92
2017-06-11T00:44:52.053Z,17.95
2017-06-11T00:45:52.632Z,17.80
2017-06-11T00:46:53.225Z,17.76
2017-06-11T00:47:53.804Z,17.86
2017-06-11T00:48:54.397Z,17.64
2017-06-11T00:49:54.975Z,17.67
2017-06-11T00:50:55.555Z,17.83
2017-06-11T00:51:56.147Z,17.80
2017-06-11T00:52:56.725Z,17.72
2017-06-11T00:53:57.305Z,17.67
2017-06-11T00:54:57.883Z,17.65
2017-06-11T00:55:58.462Z,17.64
2017-06-11T00:56:59.039Z,17.67
2017-06-11T00:57:59.617Z,17.59
2017-06-11T00:59:00.195Z,17.76
2017-06-11T01:00:00.773Z,17.64
2017-06-11T01:01:01.350Z,17.63
2017-06-11T01:02:01.928Z,17.67
2017-06-11T01:03:02.505Z,17.56
2017-06-11T01:04:03.086Z,17.57
2017-06-11T01:05:03.665Z,17.49
2017-06-11T01:06:04.245Z,17.54
2017-06-11T01:07:04.827Z,17.48
2017-06-11T01:08:05.405Z,17.54
2017-06-11T01:09:05.982Z,17.48
2017-06-11T01:10:06.562Z,17.38
2017-06-11T01:11:07.138Z,17.27
2017-06-11T01:12:07.716Z,16.86
2017-06-11T01:13:08.306Z,16.71
2017-06-11T01:14:08.901Z,16.46
2017-06-11T01:15:09.475Z,17.09
2017-06-11T01:16:10.052Z,16.81
2017-06-11T01:17:10.630Z,16.60
2017-06-11T01:18:11.207Z,16.36
2017-06-11T01:19:11.787Z,16.49
2017-06-11T01:20:12.376Z,16.42
2017-06-11T01:21:12.954Z,16.28
2017-06-11T01:22:13.536Z,16.26
2017-06-11T01:23:14.125Z,16.32
2017-06-11T01:24:14.703Z,16.39
2017-06-11T01:25:15.281Z,16.28
2017-06-11T01:26:15.859Z,16.31
2017-06-11T01:27:16.439Z,16.41
2017-06-11T01:28:17.016Z,16.29
2017-06-11T01:29:17.595Z,16.26
2017-06-11T01:30:18.172Z,16.13
2017-06-11T01:31:18.748Z,15.95
2017-06-11T01:32:19.337Z,16.32
2017-06-11T01:33:19.915Z,16.43
2017-06-11T01:34:20.494Z,16.56
2017-06-11T01:35:21.071Z,16.35
2017-06-11T01:36:21.649Z,16.36
2017-06-11T01:37:22.227Z,16.21
2017-06-11T01:38:22.801Z,16.17
2017-06-11T01:39:23.378Z,16.04
2017-06-11T01:40:23.954Z,16.28
2017-06-11T01:41:24.531Z,16.33
2017-06-11T01:42:25.108Z,16.42
2017-06-11T01:43:25.685Z,16.38
2017-06-11T01:44:26.261Z,16.46
2017-06-11T01:45:26.849Z,16.41
2017-06-11T01:46:27.425Z,16.36
2017-06-11T01:47:28.015Z,16.42
2017-06-11T01:48:28.593Z,16.23
2017-06-11T01:49:29.170Z,16.36
2017-06-11T01:50:29.748Z,16.24
2017-06-11T01:51:30.324Z,16.28
2017-06-11T01:52:30.901Z,16.26
2017-06-11T01:53:31.478Z,16.31
2017-06-11T01:54:32.056Z,16.29
2017-06-11T01:55:32.632Z,16.39
2017-06-11T01:56:33.209Z,16.24
2017-06-11T01:57:33.786Z,16.21
2017-06-11T01:58:34.361Z,16.31
2017-06-11T01:59:34.939Z,16.20
2017-06-11T02:00:35.516Z,16.13
2017-06-11T02:01:36.093Z,16.02
2017-06-11T02:02:36.669Z,16.16
2017-06-11T02:03:37.245Z,16.32
2017-06-11T02:04:37.824Z,16.12
2017-06-11T02:05:38.402Z,15.97
2017-06-11T02:06:38.979Z,15.72
2017-06-11T02:07:39.558Z,15.88
2017-06-11T02:08:40.133Z,15.90
2017-06-11T02:09:40.716Z,15.90
2017-06-11T02:10:41.287Z,15.97
2017-06-11T02:11:41.865Z,16.12
2017-06-11T02:12:42.441Z,16.24
2017-06-11T02:13:43.017Z,16.08
2017-06-11T02:14:43.607Z,16.23
2017-06-11T02:15:44.185Z,16.17
2017-06-11T02:16:44.773Z,16.10
2017-06-11T02:17:45.364Z,16.04
2017-06-11T02:18:45.939Z,15.82
2017-06-11T02:19:46.516Z,16.00
2017-06-11T02:20:47.093Z,15.97
2017-06-11T02:21:47.669Z,15.80
2017-06-11T02:22:48.246Z,16.05
2017-06-11T02:23:48.825Z,16.17
2017-06-11T02:24:49.402Z,16.28
2017-06-11T02:25:49.980Z,16.16
2017-06-11T02:26:50.559Z,16.09
2017-06-11T02:27:51.134Z,16.24
2017-06-11T02:28:51.711Z,16.20
2017-06-11T02:29:52.288Z,16.17
2017-06-11T02:30:52.864Z,15.97
2017-06-11T02:31:53.440Z,16.10
2017-06-11T02:32:54.017Z,15.95
2017-06-11T02:33:54.595Z,15.97
2017-06-11T02:34:55.171Z,15.82
2017-06-11T02:35:55.747Z,15.70
2017-06-11T02:36:56.323Z,15.72
2017-06-11T02:37:56.912Z,15.70
2017-06-11T02:38:57.488Z,16.00
2017-06-11T02:39:58.064Z,15.70
2017-06-11T02:40:58.640Z,15.84
2017-06-11T02:41:59.216Z,15.76
2017-06-11T02:42:59.792Z,15.59
2017-06-11T02:44:00.370Z,15.58
2017-06-11T02:45:00.946Z,15.55
2017-06-11T02:46:01.523Z,15.72
2017-06-11T02:47:02.099Z,15.76
2017-06-11T02:48:02.689Z,15.77
2017-06-11T02:49:03.267Z,15.65
2017-06-11T02:50:03.842Z,15.97
2017-06-11T02:51:04.419Z,15.65
2017-06-11T02:52:04.994Z,15.55
2017-06-11T02:53:05.570Z,15.65
2017-06-11T02:54:06.149Z,15.68
2017-06-11T02:55:06.723Z,15.55
2017-06-11T02:56:07.298Z,15.39
2017-06-11T02:57:07.874Z,15.58
2017-06-11T02:58:08.449Z,15.58
2017-06-11T02:59:09.025Z,15.54
2017-06-11T03:00:09.604Z,15.64
2017-06-11T03:01:10.178Z,15.59
2017-06-11T03:02:10.759Z,15.57
2017-06-11T03:03:11.336Z,15.62
2017-06-11T03:04:11.916Z,15.64
2017-06-11T03:05:12.493Z,15.59
2017-06-11T03:06:13.070Z,15.58
2017-06-11T03:07:13.661Z,15.68
2017-06-11T03:08:14.237Z,15.55
2017-06-11T03:09:14.832Z,15.62
2017-06-11T03:10:15.417Z,15.62
2017-06-11T03:11:15.993Z,15.64
2017-06-11T03:12:16.569Z,15.72
2017-06-11T03:13:17.150Z,15.64
2017-06-11T03:14:17.726Z,15.72
2017-06-11T03:15:18.305Z,15.51
2017-06-11T03:16:18.880Z,15.61
2017-06-11T03:17:19.459Z,15.67
2017-06-11T03:18:20.050Z,15.73
2017-06-11T03:19:20.627Z,16.04
2017-06-11T03:20:21.207Z,16.35
2017-06-11T03:21:21.782Z,16.81
2017-06-11T03:22:22.360Z,16.69
2017-06-11T03:23:22.937Z,16.50
2017-06-11T03:24:23.513Z,16.81
2017-06-11T03:25:24.091Z,16.72
2017-06-11T03:26:24.668Z,16.91
2017-06-11T03:27:25.246Z,16.87
2017-06-11T03:28:25.825Z,17.05
2017-06-11T03:29:26.403Z,16.50
2017-06-11T03:30:26.981Z,16.54
2017-06-11T03:31:27.558Z,16.29
2017-06-11T03:32:28.155Z,16.24
2017-06-11T03:33:28.725Z,16.39
2017-06-11T03:34:29.317Z,16.38
2017-06-11T03:35:29.898Z,16.13
2017-06-11T03:36:30.473Z,16.24
2017-06-11T03:37:31.051Z,16.31
2017-06-11T03:38:31.630Z,16.46
2017-06-11T03:39:32.205Z,16.56
2017-06-11T03:40:32.783Z,16.68
2017-06-11T03:41:33.374Z,16.74
2017-06-11T03:42:33.952Z,16.28
2017-06-11T03:43:34.530Z,16.10
2017-06-11T03:44:35.107Z,15.91
2017-06-11T03:45:35.688Z,16.13
2017-06-11T03:46:36.267Z,16.29
2017-06-11T03:47:36.845Z,16.26
2017-06-11T03:48:37.423Z,16.10
2017-06-11T03:49:38.000Z,16.29
2017-06-11T03:50:38.578Z,16.23
2017-06-11T03:51:39.154Z,16.09
2017-06-11T03:52:39.733Z,16.21
2017-06-11T03:53:40.310Z,16.10
2017-06-11T03:54:40.888Z,15.97
2017-06-11T03:55:41.467Z,16.42
2017-06-11T03:56:42.071Z,16.57
2017-06-11T03:57:42.624Z,16.35
2017-06-11T03:58:43.201Z,16.46
2017-06-11T03:59:43.779Z,16.46
2017-06-11T04:00:44.371Z,16.47
2017-06-11T04:01:44.950Z,16.35
2017-06-11T04:02:45.528Z,16.96
2017-06-11T04:03:46.105Z,16.74
2017-06-11T04:04:46.685Z,16.93
2017-06-11T04:05:47.264Z,16.97
2017-06-11T04:06:47.844Z,17.22
2017-06-11T04:07:48.423Z,17.29
2017-06-11T04:08:49.002Z,17.44
2017-06-11T04:09:49.580Z,17.67
2017-06-11T04:10:50.162Z,17.63
2017-06-11T04:11:50.742Z,17.60
2017-06-11T04:12:51.319Z,17.71
2017-06-11T04:13:51.899Z,17.85
2017-06-11T04:14:52.479Z,18.00
2017-06-11T04:15:53.059Z,18.19
2017-06-11T04:16:53.640Z,18.18
2017-06-11T04:17:54.220Z,18.25
2017-06-11T04:18:54.799Z,18.38
2017-06-11T04:19:55.377Z,18.31
2017-06-11T04:20:55.960Z,18.31
2017-06-11T04:21:56.540Z,18.44
2017-06-11T04:22:57.132Z,18.60
2017-06-11T04:23:57.713Z,18.71
2017-06-11T04:24:58.295Z,18.65
2017-06-11T04:25:58.875Z,18.68
2017-06-11T04:26:59.461Z,18.75
2017-06-11T04:28:00.048Z,18.80
2017-06-11T04:29:00.626Z,18.78
2017-06-11T04:30:01.208Z,18.86
2017-06-11T04:31:01.788Z,18.88
2017-06-11T04:32:02.369Z,18.92
2017-06-11T04:33:02.948Z,18.93
2017-06-11T04:34:03.527Z,18.96
2017-06-11T04:35:04.106Z,19.00
2017-06-11T04:36:04.686Z,19.02
2017-06-11T04:37:05.267Z,18.89
2017-06-11T04:38:05.858Z,19.07
2017-06-11T04:39:06.440Z,18.98
2017-06-11T04:40:07.021Z,18.98
2017-06-11T04:41:07.603Z,18.92
2017-06-11T04:42:08.182Z,19.02
2017-06-11T04:43:08.775Z,19.07
2017-06-11T04:44:09.356Z,19.11
2017-06-11T04:45:09.938Z,19.09
2017-06-11T04:46:10.519Z,18.99
2017-06-11T04:47:11.101Z,19.00
2017-06-11T04:48:11.681Z,19.02
2017-06-11T04:49:12.261Z,19.09
2017-06-11T04:50:12.845Z,19.07
2017-06-11T04:51:13.423Z,19.02
2017-06-11T04:52:14.005Z,19.09
2017-06-11T04:53:14.584Z,19.12
2017-06-11T04:54:15.164Z,19.18
2017-06-11T04:55:15.747Z,19.14
2017-06-11T04:56:16.328Z,19.18
2017-06-11T04:57:16.922Z,19.15
2017-06-11T04:58:17.504Z,19.22
2017-06-11T04:59:18.085Z,19.09
2017-06-11T05:00:18.666Z,19.16
2017-06-11T05:01:19.249Z,19.16
2017-06-11T05:02:19.830Z,19.24
2017-06-11T05:03:20.412Z,19.26
2017-06-11T05:04:20.994Z,19.24
2017-06-11T05:05:21.575Z,19.15
2017-06-11T05:06:22.168Z,19.26
2017-06-11T05:07:22.747Z,19.33
2017-06-11T05:08:23.329Z,19.34
2017-06-11T05:09:23.911Z,19.33
2017-06-11T05:10:24.492Z,19.27
2017-06-11T05:11:25.073Z,19.34
2017-06-11T05:12:25.657Z,19.47
2017-06-11T05:13:26.238Z,19.37
2017-06-11T05:14:26.819Z,19.48
2017-06-11T05:15:27.400Z,19.54
2017-06-11T05:16:27.994Z,19.45
2017-06-11T05:17:28.575Z,19.54
2017-06-11T05:18:29.157Z,19.47
2017-06-11T05:19:29.737Z,19.62
2017-06-11T05:20:30.321Z,19.59
2017-06-11T05:21:30.908Z,19.55
2017-06-11T05:22:31.496Z,19.59
2017-06-11T05:23:32.078Z,19.58
2017-06-11T05:24:32.659Z,19.59
2017-06-11T05:25:33.241Z,19.55
2017-06-11T05:26:33.825Z,19.55
2017-06-11T05:27:34.406Z,19.56
2017-06-11T05:28:34.987Z,19.62
2017-06-11T05:29:35.568Z,19.58
2017-06-11T05:30:36.151Z,19.58
2017-06-11T05:31:36.734Z,19.63
2017-06-11T05:32:37.314Z,19.62
2017-06-11T05:33:37.909Z,19.67
2017-06-11T05:34:38.491Z,19.69
2017-06-11T05:35:39.071Z,19.71
2017-06-11T05:36:39.653Z,19.69
2017-06-11T05:37:40.236Z,19.70
2017-06-11T05:38:40.817Z,19.77
2017-06-11T05:39:41.398Z,19.82
2017-06-11T05:40:41.978Z,19.79
2017-06-11T05:41:42.559Z,19.79
2017-06-11T05:42:43.143Z,19.76
2017-06-11T05:43:43.724Z,19.95
2017-06-11T05:44:44.305Z,19.84
2017-06-11T05:45:44.887Z,19.89
2017-06-11T05:46:45.468Z,19.81
2017-06-11T05:47:46.052Z,19.77
2017-06-11T05:48:46.633Z,19.77
2017-06-11T05:49:47.213Z,19.76
2017-06-11T05:50:47.802Z,19.79
2017-06-11T05:51:48.392Z,19.81
2017-06-11T05:52:48.974Z,19.82
2017-06-11T05:53:49.558Z,19.82
2017-06-11T05:54:50.139Z,19.82
2017-06-11T05:55:50.721Z,19.88
2017-06-11T05:56:51.314Z,19.88
2017-06-11T05:57:51.895Z,19.92
2017-06-11T05:58:52.477Z,19.86
2017-06-11T05:59:53.060Z,19.94
2017-06-11T06:00:53.640Z,19.85
2017-06-11T06:01:54.222Z,20.04
2017-06-11T06:02:54.802Z,19.86
2017-06-11T06:03:55.384Z,19.85
2017-06-11T06:04:55.969Z,19.94
2017-06-11T06:05:56.549Z,19.86
2017-06-11T06:06:57.130Z,19.99
2017-06-11T06:07:57.710Z,19.91
2017-06-11T06:08:58.292Z,20.00
2017-06-11T06:09:58.875Z,20.03
2017-06-11T06:10:59.455Z,20.11
2017-06-11T06:12:00.036Z,20.03
2017-06-11T06:13:00.617Z,20.04
2017-06-11T06:14:01.199Z,20.21
2017-06-11T06:15:01.781Z,20.21
2017-06-11T06:16:02.363Z,20.13
2017-06-11T06:17:02.946Z,20.11
2017-06-11T06:18:03.527Z,20.16
2017-06-11T06:19:04.108Z,20.16
2017-06-11T06:20:04.693Z,20.28
2017-06-11T06:21:05.275Z,20.31
2017-06-11T06:22:05.854Z,20.25
2017-06-11T06:23:06.441Z,20.41
2017-06-11T06:24:07.016Z,20.40
2017-06-11T06:25:07.600Z,20.26
2017-06-11T06:26:08.181Z,20.40
2017-06-11T06:27:08.762Z,20.44
2017-06-11T06:28:09.342Z,20.40
2017-06-11T06:29:09.924Z,20.47
2017-06-11T06:30:10.507Z,20.48
2017-06-11T06:31:11.090Z,20.37
2017-06-11T06:32:11.674Z,20.37
2017-06-11T06:33:12.266Z,20.37
2017-06-11T06:34:12.847Z,20.56
2017-06-11T06:35:13.428Z,20.59
2017-06-11T06:36:14.015Z,20.58
2017-06-11T06:37:14.592Z,20.70
2017-06-11T06:38:15.179Z,20.48
2017-06-11T06:39:15.770Z,20.47
2017-06-11T06:40:16.352Z,20.52
2017-06-11T06:41:16.932Z,20.62
2017-06-11T06:42:17.516Z,20.69
2017-06-11T06:43:18.098Z,20.74
2017-06-11T06:44:18.681Z,20.84
2017-06-11T06:45:19.263Z,20.74
2017-06-11T06:46:19.844Z,20.63
2017-06-11T06:47:20.428Z,20.75
2017-06-11T06:48:21.010Z,20.70
2017-06-11T06:49:21.593Z,20.72
2017-06-11T06:50:22.175Z,20.63
2017-06-11T06:51:22.771Z,20.59
2017-06-11T06:52:23.354Z,20.62
2017-06-11T06:53:23.935Z,20.66
2017-06-11T06:54:24.518Z,20.66
2017-06-11T06:55:25.101Z,20.82
2017-06-11T06:56:25.682Z,20.82
2017-06-11T06:57:26.265Z,20.99
2017-06-11T06:58:26.848Z,20.77
2017-06-11T06:59:27.429Z,20.93
2017-06-11T07:00:28.012Z,21.06
2017-06-11T07:01:28.593Z,21.03
2017-06-11T07:02:29.175Z,20.93
2017-06-11T07:03:29.759Z,21.07
2017-06-11T07:04:30.343Z,21.24
2017-06-11T07:05:30.923Z,21.20
2017-06-11T07:06:31.504Z,21.18
2017-06-11T07:07:32.087Z,21.17
2017-06-11T07:08:32.671Z,21.39
2017-06-11T07:09:33.253Z,21.06
2017-06-11T07:10:33.835Z,21.32
2017-06-11T07:11:34.417Z,21.35
2017-06-11T07:12:34.999Z,21.07
2017-06-11T07:13:35.583Z,21.20
2017-06-11T07:14:36.165Z,21.30
2017-06-11T07:15:36.746Z,21.35
2017-06-11T07:16:37.329Z,21.51
2017-06-11T07:17:37.914Z,21.20
2017-06-11T07:18:38.495Z,21.37
2017-06-11T07:19:39.078Z,21.46
2017-06-11T07:20:39.674Z,21.54
2017-06-11T07:21:40.255Z,21.70
2017-06-11T07:22:40.836Z,21.70
2017-06-11T07:23:41.418Z,21.62
2017-06-11T07:24:42.003Z,21.58
2017-06-11T07:25:42.585Z,21.70
2017-06-11T07:26:43.167Z,21.85
2017-06-11T07:27:43.753Z,21.87
2017-06-11T07:28:44.333Z,21.92
2017-06-11T07:29:44.918Z,21.85
2017-06-11T07:30:45.500Z,21.85
2017-06-11T07:31:46.082Z,21.96
2017-06-11T07:32:46.666Z,22.11
2017-06-11T07:33:47.248Z,22.23
2017-06-11T07:34:47.832Z,21.95
2017-06-11T07:35:48.415Z,22.10
2017-06-11T07:36:48.998Z,22.26
2017-06-11T07:37:49.581Z,22.32
2017-06-11T07:38:50.163Z,22.39
2017-06-11T07:39:50.747Z,22.32
2017-06-11T07:40:51.329Z,22.50
2017-06-11T07:41:51.912Z,22.63
2017-06-11T07:42:52.495Z,22.47
2017-06-11T07:43:53.078Z,22.59
2017-06-11T07:44:53.662Z,22.55
2017-06-11T07:45:54.242Z,22.65
2017-06-11T07:46:54.827Z,22.63
2017-06-11T07:47:55.411Z,22.63
2017-06-11T07:48:55.995Z,22.81
2017-06-11T07:49:56.592Z,22.90
2017-06-11T07:50:57.174Z,23.02
2017-06-11T07:51:57.758Z,23.23
2017-06-11T07:52:58.341Z,23.05
2017-06-11T07:53:58.924Z,23.06
2017-06-11T07:54:59.506Z,23.06
2017-06-11T07:56:00.089Z,23.06
2017-06-11T07:57:00.673Z,23.39
2017-06-11T07:58:01.269Z,23.36
2017-06-11T07:59:01.851Z,23.54
2017-06-11T08:00:02.435Z,23.40
2017-06-11T08:01:03.017Z,23.43
2017-06-11T08:02:03.600Z,23.23
2017-06-11T08:03:04.181Z,23.13
2017-06-11T08:04:04.764Z,23.41
2017-06-11T08:05:05.350Z,23.37
2017-06-11T08:06:05.932Z,23.27
2017-06-11T08:07:06.516Z,23.36
2017-06-11T08:08:07.098Z,23.51
2017-06-11T08:09:07.681Z,23.66
2017-06-11T08:10:08.265Z,23.74
2017-06-11T08:11:08.848Z,23.81
2017-06-11T08:12:09.433Z,23.74
2017-06-11T08:13:10.015Z,23.84
2017-06-11T08:14:10.602Z,24.06
2017-06-11T08:15:11.183Z,24.32
2017-06-11T08:16:11.765Z,24.40
2017-06-11T08:17:12.349Z,24.53
2017-06-11T08:18:12.932Z,24.20
2017-06-11T08:19:13.516Z,24.28
2017-06-11T08:20:14.101Z,24.42
2017-06-11T08:21:14.685Z,24.40
2017-06-11T08:22:15.269Z,24.53
2017-06-11T08:23:15.853Z,24.60
2017-06-11T08:24:16.434Z,24.53
2017-06-11T08:25:17.032Z,24.40
2017-06-11T08:26:17.616Z,24.77
2017-06-11T08:27:18.199Z,24.53
2017-06-11T08:28:18.784Z,24.84
2017-06-11T08:29:19.369Z,25.10
2017-06-11T08:30:19.953Z,25.22
2017-06-11T08:31:20.538Z,25.33
2017-06-11T08:32:21.121Z,25.46
2017-06-11T08:33:21.706Z,25.46
2017-06-11T08:34:22.289Z,25.53
2017-06-11T08:35:22.878Z,25.51
2017-06-11T08:36:23.458Z,25.31
2017-06-11T08:37:24.042Z,25.40
2017-06-11T08:38:24.627Z,25.36
2017-06-11T08:39:25.213Z,25.48
2017-06-11T08:40:25.797Z,25.44
2017-06-11T08:41:26.380Z,25.31
2017-06-11T08:42:26.967Z,25.46
2017-06-11T08:43:27.550Z,25.44
2017-06-11T08:44:28.135Z,25.29
2017-06-11T08:45:28.718Z,24.99
2017-06-11T08:46:29.301Z,24.68
2017-06-11T08:47:29.888Z,25.11
2017-06-11T08:48:30.471Z,24.96
2017-06-11T08:49:31.068Z,24.74
2017-06-11T08:50:31.652Z,24.73
2017-06-11T08:51:32.237Z,25.03
2017-06-11T08:52:32.818Z,25.40
2017-06-11T08:53:33.403Z,25.60
2017-06-11T08:54:33.984Z,25.50
2017-06-11T08:55:34.569Z,25.80
2017-06-11T08:56:35.151Z,25.54
2017-06-11T08:57:35.736Z,25.70
2017-06-11T08:58:36.322Z,25.88
2017-06-11T08:59:36.906Z,26.05
2017-06-11T09:00:37.503Z,26.26
2017-06-11T09:01:38.086Z,25.80
2017-06-11T09:02:38.670Z,25.80
2017-06-11T09:03:39.254Z,26.07
2017-06-11T09:04:39.838Z,26.22
2017-06-11T09:05:40.423Z,25.72
2017-06-11T09:06:41.006Z,25.83
2017-06-11T09:07:41.592Z,26.09
2017-06-11T09:08:42.176Z,26.48
2017-06-11T09:09:42.759Z,26.62
2017-06-11T09:10:43.356Z,26.66
2017-06-11T09:11:43.940Z,27.00
2017-06-11T09:12:44.527Z,26.88
2017-06-11T09:13:45.110Z,26.73
2017-06-11T09:14:45.693Z,26.36
2017-06-11T09:15:46.276Z,26.41
2017-06-11T09:16:46.861Z,26.31
2017-06-11T09:17:47.444Z,26.23
2017-06-11T09:18:48.031Z,26.26
2017-06-11T09:19:48.613Z,26.59
2017-06-11T09:20:49.197Z,26.77
2017-06-11T09:21:49.782Z,26.25
2017-06-11T09:22:50.366Z,26.34
2017-06-11T09:23:50.948Z,26.48
2017-06-11T09:24:51.534Z,26.74
2017-06-11T09:25:52.129Z,26.80
2017-06-11T09:26:52.714Z,26.89
2017-06-11T09:27:53.299Z,26.89
2017-06-11T09:28:53.883Z,26.47
2017-06-11T09:29:54.467Z,26.09
2017-06-11T09:30:55.064Z,26.29
2017-06-11T09:31:55.650Z,26.47
2017-06-11T09:32:56.233Z,26.56
2017-06-11T09:33:56.818Z,26.66
2017-06-11T09:34:57.415Z,26.25
2017-06-11T09:35:58.002Z,26.00
2017-06-11T09:36:58.582Z,26.26
2017-06-11T09:37:59.168Z,26.59
2017-06-11T09:38:59.752Z,26.26
2017-06-11T09:40:00.336Z,26.51
2017-06-11T09:41:00.922Z,26.52
2017-06-11T09:42:01.507Z,26.25
2017-06-11T09:43:02.103Z,26.22
2017-06-11T09:44:02.691Z,26.10
2017-06-11T09:45:03.270Z,26.36
2017-06-11T09:46:03.865Z,26.77
2017-06-11T09:47:04.450Z,26.53
2017-06-11T09:48:05.035Z,26.26
2017-06-11T09:49:05.619Z,26.34
2017-06-11T09:50:06.204Z,26.53
2017-06-11T09:51:06.787Z,26.55
2017-06-11T09:52:07.371Z,26.80
2017-06-11T09:53:07.957Z,26.78
2017-06-11T09:54:08.541Z,27.12
2017-06-11T09:55:09.126Z,27.42
2017-06-11T09:56:09.721Z,26.95
2017-06-11T09:57:10.330Z,26.97
2017-06-11T09:58:10.888Z,26.90
2017-06-11T09:59:11.473Z,27.11
2017-06-11T10:00:12.058Z,27.64
2017-06-11T10:01:12.640Z,27.70
2017-06-11T10:02:13.226Z,27.71
2017-06-11T10:03:13.809Z,27.35
2017-06-11T10:04:14.394Z,27.45
2017-06-11T10:05:14.978Z,27.68
2017-06-11T10:06:15.563Z,27.93
2017-06-11T10:07:16.150Z,27.89
2017-06-11T10:08:16.744Z,27.21
2017-06-11T10:09:17.328Z,27.08
2017-06-11T10:10:17.911Z,27.20
2017-06-11T10:11:18.495Z,27.10
2017-06-11T10:12:19.083Z,27.30
2017-06-11T10:13:19.665Z,27.17
2017-06-11T10:14:20.249Z,27.70
2017-06-11T10:15:20.832Z,27.80
2017-06-11T10:16:21.418Z,27.58
2017-06-11T10:17:22.016Z,27.70
2017-06-11T10:18:22.600Z,27.90
2017-06-11T10:19:23.186Z,27.68
2017-06-11T10:20:23.782Z,28.20
2017-06-11T10:21:24.366Z,28.15
2017-06-11T10:22:24.949Z,28.49
2017-06-11T10:23:25.535Z,28.57
2017-06-11T10:24:26.119Z,28.17
2017-06-11T10:25:26.702Z,27.27
2017-06-11T10:26:27.288Z,27.39
2017-06-11T10:27:27.873Z,27.98
2017-06-11T10:28:28.471Z,28.17
2017-06-11T10:29:29.059Z,27.55
2017-06-11T10:30:29.657Z,27.32
2017-06-11T10:31:30.251Z,27.77
2017-06-11T10:32:30.836Z,27.92
2017-06-11T10:33:31.425Z,28.17
2017-06-11T10:34:32.005Z,28.12
2017-06-11T10:35:32.590Z,27.25
2017-06-11T10:36:33.176Z,27.20
2017-06-11T10:37:33.760Z,27.64
2017-06-11T10:38:34.352Z,27.90
2017-06-11T10:39:34.929Z,28.20
2017-06-11T10:40:35.514Z,28.29
2017-06-11T10:41:36.099Z,28.54
2017-06-11T10:42:36.684Z,28.47
2017-06-11T10:43:37.281Z,28.49
2017-06-11T10:44:37.865Z,28.35
2017-06-11T10:45:38.459Z,28.17
2017-06-11T10:46:39.035Z,28.47
2017-06-11T10:47:39.618Z,28.41
2017-06-11T10:48:40.215Z,28.35
2017-06-11T10:49:40.798Z,28.15
2017-06-11T10:50:41.395Z,27.93
2017-06-11T10:51:41.978Z,27.92
2017-06-11T10:52:42.567Z,28.35
2017-06-11T10:53:43.160Z,28.26
2017-06-11T10:54:43.746Z,28.32
2017-06-11T10:55:44.331Z,28.45
2017-06-11T10:56:44.915Z,28.62
2017-06-11T10:57:45.500Z,29.10
2017-06-11T10:58:46.097Z,29.16
2017-06-11T10:59:46.683Z,29.38
2017-06-11T11:00:47.279Z,29.61
2017-06-11T11:01:47.864Z,29.94
2017-06-11T11:02:48.449Z,29.84
2017-06-11T11:03:49.035Z,29.42
2017-06-11T11:04:49.618Z,29.41
2017-06-11T11:05:50.204Z,29.23
2017-06-11T11:06:50.797Z,28.76
2017-06-11T11:07:51.377Z,28.38
2017-06-11T11:08:51.974Z,28.42
2017-06-11T11:09:52.559Z,28.97
2017-06-11T11:10:53.143Z,28.97
2017-06-11T11:11:53.731Z,28.42
2017-06-11T11:12:54.316Z,28.59
2017-06-11T11:13:54.902Z,28.64
2017-06-11T11:14:55.485Z,28.88
2017-06-11T11:15:56.072Z,28.75
2017-06-11T11:16:56.658Z,28.96
2017-06-11T11:17:57.257Z,29.36
2017-06-11T11:18:57.843Z,29.76
2017-06-11T11:19:58.426Z,30.00
2017-06-11T11:20:59.012Z,29.87
2017-06-11T11:21:59.597Z,30.10
2017-06-11T11:23:00.182Z,30.15
2017-06-11T11:24:00.767Z,29.75
2017-06-11T11:25:01.353Z,29.51
2017-06-11T11:26:01.942Z,29.60
2017-06-11T11:27:02.527Z,28.54
2017-06-11T11:28:03.111Z,28.64
2017-06-11T11:29:03.708Z,28.62
2017-06-11T11:30:04.294Z,28.86
2017-06-11T11:31:04.880Z,29.19
2017-06-11T11:32:05.468Z,29.16
2017-06-11T11:33:06.054Z,28.84
2017-06-11T11:34:06.638Z,29.08
2017-06-11T11:35:07.225Z,29.29
2017-06-11T11:36:07.811Z,29.59
2017-06-11T11:37:08.398Z,29.97
2017-06-11T11:38:08.982Z,30.06
2017-06-11T11:39:09.567Z,29.61
2017-06-11T11:40:10.154Z,29.59
2017-06-11T11:41:10.739Z,29.75
2017-06-11T11:42:11.337Z,29.81
2017-06-11T11:43:11.936Z,29.79
2017-06-11T11:44:12.534Z,29.84
2017-06-11T11:45:13.119Z,30.06
2017-06-11T11:46:13.706Z,30.27
2017-06-11T11:47:14.292Z,29.98
2017-06-11T11:48:14.879Z,30.06
2017-06-11T11:49:15.464Z,30.13
2017-06-11T11:50:16.050Z,30.53
2017-06-11T11:51:16.647Z,30.43
2017-06-11T11:52:17.234Z,29.91
2017-06-11T11:53:17.818Z,30.57
2017-06-11T11:54:18.405Z,30.65
2017-06-11T11:55:18.990Z,30.63
2017-06-11T11:56:19.576Z,30.05
2017-06-11T11:57:20.163Z,29.90
2017-06-11T11:58:20.747Z,29.51
2017-06-11T11:59:21.334Z,29.14
2017-06-11T12:00:21.922Z,29.02
2017-06-11T12:01:22.506Z,29.47
2017-06-11T12:02:23.092Z,29.42
2017-06-11T12:03:23.677Z,29.36
2017-06-11T12:04:24.264Z,29.07
2017-06-11T12:05:24.852Z,29.14
2017-06-11T12:06:25.437Z,29.07
2017-06-11T12:07:26.022Z,29.14
2017-06-11T12:08:26.611Z,28.67
2017-06-11T12:09:27.195Z,28.88
2017-06-11T12:10:27.780Z,28.84
2017-06-11T12:11:28.365Z,28.84
2017-06-11T12:12:28.949Z,28.93
2017-06-11T12:13:29.546Z,29.02
2017-06-11T12:14:30.133Z,28.97
2017-06-11T12:15:30.721Z,29.20
2017-06-11T12:16:31.304Z,29.36
2017-06-11T12:17:31.891Z,29.60
2017-06-11T12:18:32.476Z,29.56
2017-06-11T12:19:33.063Z,29.50
2017-06-11T12:20:33.947Z,29.93
2017-06-11T12:21:34.533Z,30.18
2017-06-11T12:22:35.123Z,30.05
2017-06-11T12:23:35.706Z,30.32
2017-06-11T12:24:36.289Z,30.63
2017-06-11T12:25:36.878Z,30.63
2017-06-11T12:26:37.463Z,30.48
2017-06-11T12:27:38.048Z,29.88
2017-06-11T12:28:38.635Z,30.39
2017-06-11T12:29:39.220Z,30.28
2017-06-11T12:30:39.808Z,30.12
2017-06-11T12:31:40.394Z,30.12
2017-06-11T12:32:40.980Z,29.97
2017-06-11T12:33:41.567Z,29.59
2017-06-11T12:34:42.153Z,30.08
2017-06-11T12:35:42.739Z,29.63
2017-06-11T12:36:43.327Z,29.79
2017-06-11T12:37:43.915Z,29.36
2017-06-11T12:38:44.511Z,28.84
2017-06-11T12:39:45.098Z,28.85
2017-06-11T12:40:45.682Z,28.84
2017-06-11T12:41:46.269Z,28.60
2017-06-11T12:42:46.857Z,28.84
2017-06-11T12:43:47.445Z,28.79
2017-06-11T12:44:48.028Z,28.84
2017-06-11T12:45:48.614Z,28.96
2017-06-11T12:46:49.199Z,28.78
2017-06-11T12:47:49.785Z,28.98
2017-06-11T12:48:50.371Z,29.05
2017-06-11T12:49:50.970Z,29.10
2017-06-11T12:50:51.555Z,28.94
2017-06-11T12:51:52.142Z,28.86
2017-06-11T12:52:52.726Z,28.88
2017-06-11T12:53:53.312Z,28.63
2017-06-11T12:54:53.898Z,28.67
2017-06-11T12:55:54.484Z,28.86
2017-06-11T12:56:55.067Z,28.94
2017-06-11T12:57:55.652Z,29.07
2017-06-11T12:58:56.238Z,29.27
2017-06-11T12:59:56.824Z,28.72